Time;durP1;ratioP1;P1;durP2;ratioP2;P2;SDS_P1;SDS_P2;PMS_P1;PMS_P2;Temp;Humidity;BMP_temperature;BMP_pressure;BME280_temperature;BME280_humidity;BME280_pressure;Samples;Min_cycle;Max_cycle;Signal;HPM_P1;HPM_P2
2023/04/15 00:00:51;;;;;;;4.15;1.15;;;19.70;99.90;;;;;;5089211;28;20046;-63
2023/04/15 00:03:27;;;;;;;5.18;1.52;;;19.90;99.90;;;;;;5101186;28;20741;-64
2023/04/15 00:05:55;;;;;;;4.80;1.40;;;20.10;99.90;;;;;;5091306;28;20027;-64
2023/04/15 00:08:22;;;;;;;5.07;1.55;;;20.30;99.90;;;;;;5081930;28;20047;-63
2023/04/15 00:10:50;;;;;;;3.08;1.20;;;20.40;99.90;;;;;;5089848;28;20101;-64
2023/04/15 00:13:17;;;;;;;3.67;1.45;;;20.60;99.90;;;;;;5088550;28;20020;-65
2023/04/15 00:15:45;;;;;;;2.40;1.00;;;20.80;99.90;;;;;;5072942;28;20089;-66
2023/04/15 00:18:12;;;;;;;4.13;1.10;;;20.90;99.90;;;;;;5080880;28;20119;-64
2023/04/15 00:20:40;;;;;;;5.65;1.15;;;21.10;99.90;;;;;;5100689;28;20036;-64
2023/04/15 00:23:08;;;;;;;2.95;1.10;;;21.20;99.90;;;;;;5104797;28;20447;-65
2023/04/15 00:25:35;;;;;;;3.58;1.20;;;21.40;99.90;;;;;;5102657;28;20034;-66
2023/04/15 00:28:07;;;;;;;4.55;1.00;;;21.60;99.90;;;;;;5097069;28;20016;-65
2023/04/15 00:30:34;;;;;;;4.30;1.30;;;21.70;99.90;;;;;;5106960;28;20135;-65
2023/04/15 00:33:02;;;;;;;2.92;0.95;;;21.90;99.90;;;;;;5089881;28;20059;-65
2023/04/15 00:35:33;;;;;;;6.70;0.93;;;22.00;99.90;;;;;;5101272;28;20036;-65
2023/04/15 00:38:01;;;;;;;3.83;1.17;;;22.20;99.90;;;;;;5097776;28;20020;-65
2023/04/15 00:40:28;;;;;;;4.70;0.82;;;22.30;99.90;;;;;;5089109;28;20024;-65
2023/04/15 00:42:56;;;;;;;2.00;0.88;;;22.50;99.90;;;;;;5088707;28;20063;-67
2023/04/15 00:45:23;;;;;;;2.10;0.50;;;22.70;99.90;;;;;;5088271;28;20031;-64
2023/04/15 00:47:54;;;;;;;1.55;0.80;;;22.90;99.90;;;;;;5096304;28;20023;-64
2023/04/15 00:50:26;;;;;;;2.40;1.00;;;23.00;99.90;;;;;;5109529;28;20031;-64
2023/04/15 00:52:53;;;;;;;3.40;0.70;;;23.10;99.90;;;;;;5091037;28;20038;-67
2023/04/15 00:55:21;;;;;;;6.22;0.95;;;23.10;99.90;;;;;;5093044;28;20023;-64
2023/04/15 00:57:49;;;;;;;3.20;0.68;;;23.20;99.90;;;;;;5112500;28;20022;-64
2023/04/15 01:00:19;;;;;;;5.20;0.52;;;23.30;99.90;;;;;;5093912;28;20089;-64
2023/04/15 01:02:49;;;;;;;2.80;0.43;;;23.40;99.90;;;;;;5093114;28;20131;-64
2023/04/15 01:05:18;;;;;;;2.55;0.50;;;23.50;99.90;;;;;;5107937;28;20447;-65
2023/04/15 01:07:46;;;;;;;5.38;0.60;;;23.50;99.90;;;;;;5091516;28;20050;-65
2023/04/15 01:10:14;;;;;;;2.15;0.80;;;23.60;99.90;;;;;;5092506;28;20043;-64
2023/04/15 01:12:45;;;;;;;2.38;0.73;;;23.70;99.90;;;;;;5092017;28;20031;-66
2023/04/15 01:15:12;;;;;;;8.23;1.23;;;23.70;99.90;;;;;;5091537;28;20102;-65
2023/04/15 01:17:40;;;;;;;2.58;0.85;;;23.80;99.90;;;;;;5111605;28;20080;-64
2023/04/15 01:20:14;;;;;;;2.65;0.75;;;23.90;99.90;;;;;;5109605;28;20026;-64
2023/04/15 01:22:42;;;;;;;1.00;0.70;;;24.00;99.90;;;;;;5079656;28;20230;-66
2023/04/15 01:25:18;;;;;;;5.45;0.70;;;24.00;99.90;;;;;;5091711;28;20055;-66
2023/04/15 01:27:46;;;;;;;2.33;1.05;;;24.00;99.90;;;;;;5091221;28;20098;-67
2023/04/15 01:30:14;;;;;;;3.85;0.65;;;23.80;99.90;;;;;;5072701;28;20110;-65
2023/04/15 01:32:42;;;;;;;3.70;1.35;;;23.90;99.90;;;;;;5091761;28;20107;-65
2023/04/15 01:35:18;;;;;;;1.85;0.55;;;24.10;99.90;;;;;;5071964;28;20027;-66
2023/04/15 01:37:49;;;;;;;3.75;0.98;;;24.20;99.90;;;;;;5089593;28;20031;-65
2023/04/15 01:40:20;;;;;;;2.22;0.60;;;24.30;99.90;;;;;;5087200;28;20020;-67
2023/04/15 01:42:50;;;;;;;3.08;0.90;;;24.30;99.90;;;;;;5091361;28;20051;-66
2023/04/15 01:45:18;;;;;;;2.50;0.70;;;24.50;99.90;;;;;;5110595;28;20027;-65
2023/04/15 01:47:45;;;;;;;6.15;1.45;;;24.70;99.90;;;;;;5110673;28;20031;-64
2023/04/15 01:50:13;;;;;;;2.03;0.68;;;24.80;99.90;;;;;;5109899;28;20312;-65
2023/04/15 01:52:40;;;;;;;3.22;0.80;;;24.80;99.90;;;;;;5089993;28;20031;-65
2023/04/15 01:55:08;;;;;;;4.40;0.55;;;24.80;99.90;;;;;;5090873;28;20066;-65
2023/04/15 01:57:36;;;;;;;2.58;0.77;;;24.80;99.90;;;;;;5104303;28;20499;-64
2023/04/15 02:00:06;;;;;;;3.03;0.70;;;24.90;99.90;;;;;;5096462;28;20032;-65
2023/04/15 02:02:34;;;;;;;3.35;0.70;;;25.00;99.90;;;;;;5109548;28;20051;-63
2023/04/15 02:05:04;;;;;;;2.42;0.70;;;25.00;99.90;;;;;;5101351;28;20077;-65
2023/04/15 02:07:31;;;;;;;2.58;0.77;;;25.20;99.90;;;;;;5072668;28;20111;-65
2023/04/15 02:09:59;;;;;;;3.40;0.63;;;25.20;99.90;;;;;;5102010;28;20046;-65
2023/04/15 02:12:26;;;;;;;4.93;0.70;;;25.30;99.90;;;;;;5107944;28;20369;-64
2023/04/15 02:14:54;;;;;;;1.95;0.80;;;25.40;99.90;;;;;;5071208;28;20024;-66
2023/04/15 02:17:22;;;;;;;4.82;0.90;;;25.30;99.90;;;;;;5091917;28;20023;-65
2023/04/15 02:19:49;;;;;;;2.92;0.73;;;25.40;99.90;;;;;;5093925;28;20074;-65
2023/04/15 02:22:17;;;;;;;4.80;1.15;;;25.40;99.90;;;;;;5092359;28;20396;-66
2023/04/15 02:24:45;;;;;;;5.70;1.15;;;25.40;99.90;;;;;;5099349;28;20020;-64
2023/04/15 02:27:19;;;;;;;4.68;0.68;;;25.50;99.90;;;;;;5091192;28;20908;-63
2023/04/15 02:29:46;;;;;;;4.38;0.90;;;25.60;99.90;;;;;;5095924;28;20027;-62
2023/04/15 02:32:14;;;;;;;2.95;0.60;;;25.80;99.90;;;;;;5102299;28;20066;-67
2023/04/15 02:34:42;;;;;;;1.85;0.60;;;25.90;99.90;;;;;;5108085;28;20019;-67
2023/04/15 02:37:10;;;;;;;3.10;0.73;;;25.90;99.30;;;;;;5103325;28;20031;-67
2023/04/15 02:39:38;;;;;;;4.32;0.68;;;26.00;99.90;;;;;;5095391;28;20024;-67
2023/04/15 02:42:06;;;;;;;2.28;0.70;;;26.10;99.90;;;;;;5091828;28;20127;-66
2023/04/15 02:44:35;;;;;;;1.30;0.70;;;26.10;99.30;;;;;;5090749;28;20089;-67
2023/04/15 02:47:03;;;;;;;1.63;0.73;;;26.00;98.10;;;;;;5091699;28;20103;-68
2023/04/15 02:49:31;;;;;;;9.68;1.00;;;26.00;99.80;;;;;;5092079;28;20487;-67
2023/04/15 02:51:59;;;;;;;5.75;1.42;;;26.00;98.60;;;;;;5094906;28;20073;-66
2023/04/15 02:54:31;;;;;;;3.92;1.50;;;25.80;98.60;;;;;;5101700;28;20020;-68
2023/04/15 02:56:59;;;;;;;2.15;0.98;;;25.80;99.90;;;;;;5091636;28;20027;-67
2023/04/15 02:59:26;;;;;;;2.55;0.70;;;26.00;99.90;;;;;;5107908;28;20061;-67
2023/04/15 03:01:55;;;;;;;2.72;0.85;;;26.20;99.90;;;;;;5074060;28;20071;-67
2023/04/15 03:04:22;;;;;;;1.05;0.68;;;26.30;98.40;;;;;;5091922;28;20062;-67
2023/04/15 03:06:50;;;;;;;2.10;0.63;;;26.40;97.30;;;;;;5094633;28;20024;-67
2023/04/15 03:09:18;;;;;;;2.53;0.60;;;26.40;96.00;;;;;;5095282;28;20027;-67
2023/04/15 03:11:45;;;;;;;2.63;1.20;;;26.50;95.30;;;;;;5091318;28;20515;-67
2023/04/15 03:14:12;;;;;;;5.85;1.42;;;26.40;93.50;;;;;;5090385;28;20070;-67
2023/04/15 03:16:40;;;;;;;1.58;0.50;;;26.30;92.70;;;;;;5071870;28;20156;-67
2023/04/15 03:19:07;;;;;;;1.60;0.55;;;26.20;94.20;;;;;;5090686;28;20392;-69
2023/04/15 03:21:35;;;;;;;3.92;1.13;;;26.00;94.40;;;;;;5071763;28;20614;-66
2023/04/15 03:24:02;;;;;;;1.23;0.57;;;26.10;94.20;;;;;;5090175;28;20114;-66
2023/04/15 03:26:31;;;;;;;1.85;0.68;;;26.10;95.40;;;;;;5088483;28;20495;-66
2023/04/15 03:28:58;;;;;;;1.48;0.57;;;26.10;92.00;;;;;;5110372;28;20057;-66
2023/04/15 03:31:26;;;;;;;3.83;0.55;;;26.10;91.80;;;;;;5110296;28;20065;-66
2023/04/15 03:33:53;;;;;;;4.07;0.88;;;26.10;92.40;;;;;;5091931;28;20027;-66
2023/04/15 03:36:20;;;;;;;5.10;0.63;;;26.20;92.70;;;;;;5110530;28;20669;-66
2023/04/15 03:38:49;;;;;;;1.00;0.40;;;26.30;92.10;;;;;;5093950;28;20385;-66
2023/04/15 03:41:16;;;;;;;2.30;0.57;;;26.40;90.80;;;;;;5091853;28;20023;-66
2023/04/15 03:43:43;;;;;;;2.03;0.82;;;26.60;88.60;;;;;;5090046;28;20048;-66
2023/04/15 03:46:11;;;;;;;1.77;0.80;;;26.70;84.20;;;;;;5108082;28;20012;-66
2023/04/15 03:48:38;;;;;;;3.00;0.98;;;26.70;86.80;;;;;;5081495;28;20030;-67
2023/04/15 03:51:06;;;;;;;1.45;0.90;;;26.70;83.50;;;;;;5097705;28;20467;-66
2023/04/15 03:53:33;;;;;;;1.40;0.50;;;26.70;83.20;;;;;;5081247;28;20597;-66
2023/04/15 03:56:01;;;;;;;2.17;0.70;;;26.80;83.50;;;;;;5075980;28;20024;-66
2023/04/15 03:58:28;;;;;;;1.90;1.02;;;26.60;77.80;;;;;;5071098;28;20024;-66
2023/04/15 04:00:56;;;;;;;0.82;0.50;;;26.50;77.40;;;;;;5097665;28;20433;-66
2023/04/15 04:03:23;;;;;;;1.25;0.55;;;26.50;82.90;;;;;;5098645;28;20119;-66
2023/04/15 04:05:51;;;;;;;1.73;0.50;;;26.60;79.90;;;;;;5070732;28;20020;-67
2023/04/15 04:08:20;;;;;;;1.35;0.47;;;26.80;78.10;;;;;;5076390;28;20082;-66
2023/04/15 04:10:48;;;;;;;0.63;0.40;;;26.90;74.30;;;;;;5086414;28;20054;-67
2023/04/15 04:13:15;;;;;;;0.68;0.30;;;26.80;75.00;;;;;;5095359;28;20157;-65
2023/04/15 04:15:43;;;;;;;0.55;0.35;;;27.10;74.40;;;;;;5096184;28;20032;-66
2023/04/15 04:18:11;;;;;;;1.77;0.60;;;27.10;72.10;;;;;;5095234;28;20092;-67
2023/04/15 04:20:38;;;;;;;0.75;0.32;;;27.10;70.80;;;;;;5089528;28;20154;-67
2023/04/15 04:23:06;;;;;;;1.20;0.40;;;27.10;65.50;;;;;;5095481;28;20035;-66
2023/04/15 04:25:33;;;;;;;1.38;0.50;;;27.10;70.90;;;;;;5097061;28;20023;-66
2023/04/15 04:28:01;;;;;;;0.90;0.30;;;27.20;71.30;;;;;;5106433;28;20073;-66
2023/04/15 04:30:29;;;;;;;2.05;0.70;;;27.20;71.40;;;;;;5100886;28;20082;-66
2023/04/15 04:32:56;;;;;;;1.20;0.40;;;27.40;70.80;;;;;;5103015;28;20115;-66
2023/04/15 04:35:24;;;;;;;2.05;0.52;;;27.50;72.90;;;;;;5095323;28;20130;-66
2023/04/15 04:37:52;;;;;;;1.20;0.60;;;27.50;70.70;;;;;;5105987;28;20038;-66
2023/04/15 04:40:20;;;;;;;1.65;0.50;;;27.40;69.50;;;;;;5106834;28;20020;-66
2023/04/15 04:42:47;;;;;;;1.45;0.50;;;27.30;69.10;;;;;;5106597;28;20028;-66
2023/04/15 04:45:15;;;;;;;2.83;1.27;;;27.20;68.50;;;;;;5104799;28;20729;-66
2023/04/15 04:47:42;;;;;;;9.75;0.77;;;27.00;67.50;;;;;;5103297;28;20114;-65
2023/04/15 04:50:10;;;;;;;2.97;0.68;;;26.80;69.00;;;;;;5100672;28;20031;-66
2023/04/15 04:52:38;;;;;;;3.75;0.50;;;26.70;68.50;;;;;;5103748;28;20080;-65
2023/04/15 04:55:07;;;;;;;1.50;0.60;;;26.60;68.80;;;;;;5086366;28;20020;-66
2023/04/15 04:57:35;;;;;;;1.10;0.40;;;26.50;69.90;;;;;;5100895;28;20028;-66
2023/04/15 05:00:03;;;;;;;2.53;0.30;;;26.50;70.00;;;;;;5100337;28;20058;-66
2023/04/15 05:02:31;;;;;;;0.82;0.35;;;26.40;69.20;;;;;;5100129;28;20035;-66
2023/04/15 05:04:58;;;;;;;1.02;0.40;;;26.20;70.70;;;;;;5094963;28;20028;-66
2023/04/15 05:07:26;;;;;;;1.27;0.47;;;26.20;71.10;;;;;;5101245;28;20024;-66
2023/04/15 05:09:53;;;;;;;2.88;0.35;;;26.20;73.00;;;;;;5107391;28;20024;-67
2023/04/15 05:12:21;;;;;;;1.40;0.40;;;26.20;73.70;;;;;;5082885;28;20388;-65
2023/04/15 05:14:48;;;;;;;1.73;0.47;;;26.10;74.40;;;;;;5110050;28;20103;-66
2023/04/15 05:17:24;;;;;;;3.30;0.50;;;26.10;73.40;;;;;;5099389;28;20092;-67
2023/04/15 05:19:52;;;;;;;1.60;0.43;;;26.10;73.30;;;;;;5096125;28;20036;-69
2023/04/15 05:22:20;;;;;;;3.50;0.98;;;26.00;72.60;;;;;;5094268;28;20493;-69
2023/04/15 05:24:50;;;;;;;3.58;0.52;;;26.00;72.60;;;;;;5095578;28;20357;-66
2023/04/15 05:27:18;;;;;;;3.50;0.60;;;25.90;72.50;;;;;;5097283;28;20484;-67
2023/04/15 05:29:45;;;;;;;1.52;0.82;;;25.80;72.80;;;;;;5101407;28;20073;-70
2023/04/15 05:32:13;;;;;;;2.20;0.80;;;25.80;73.80;;;;;;5079800;28;20166;-68
2023/04/15 05:34:43;;;;;;;1.33;0.50;;;25.70;73.80;;;;;;5092186;28;20016;-68
2023/04/15 05:37:11;;;;;;;1.75;0.40;;;25.70;74.70;;;;;;5080445;28;20036;-67
2023/04/15 05:39:39;;;;;;;2.22;1.05;;;25.60;74.50;;;;;;5094703;28;20020;-67
2023/04/15 05:42:09;;;;;;;3.85;1.08;;;25.60;74.90;;;;;;5086017;28;20024;-67
2023/04/15 05:44:36;;;;;;;2.25;0.68;;;25.50;77.90;;;;;;5101469;28;20122;-67
2023/04/15 05:47:04;;;;;;;2.00;0.77;;;25.40;78.50;;;;;;5102815;28;20016;-67
2023/04/15 05:49:32;;;;;;;3.03;0.60;;;25.40;78.00;;;;;;5098182;28;20051;-68
2023/04/15 05:52:02;;;;;;;5.30;0.45;;;25.40;79.40;;;;;;5080021;28;20118;-67
2023/04/15 05:54:30;;;;;;;2.75;0.98;;;25.30;78.50;;;;;;5082264;28;20031;-65
2023/04/15 05:56:58;;;;;;;4.20;0.60;;;25.30;79.60;;;;;;5101999;28;20028;-64
2023/04/15 05:59:28;;;;;;;2.60;0.60;;;25.20;78.90;;;;;;5079634;28;20442;-65
2023/04/15 06:01:56;;;;;;;0.82;0.40;;;25.10;78.60;;;;;;5098148;28;20067;-63
2023/04/15 06:04:23;;;;;;;3.58;0.50;;;25.20;79.90;;;;;;5100726;28;20506;-64
2023/04/15 06:06:53;;;;;;;3.10;0.60;;;25.00;79.90;;;;;;5101251;28;20023;-64
2023/04/15 06:09:21;;;;;;;5.38;1.42;;;25.00;81.40;;;;;;5078769;28;20383;-63
2023/04/15 06:11:52;;;;;;;2.15;0.68;;;24.90;82.30;;;;;;5080440;28;20570;-62
2023/04/15 06:14:20;;;;;;;2.08;0.60;;;24.80;81.90;;;;;;5093330;28;20476;-63
2023/04/15 06:16:47;;;;;;;2.30;0.50;;;24.70;81.60;;;;;;5102026;28;20028;-65
2023/04/15 06:19:14;;;;;;;4.05;0.98;;;24.50;83.10;;;;;;5097365;28;20042;-65
2023/04/15 06:21:42;;;;;;;1.77;0.60;;;24.30;84.10;;;;;;5100607;28;20036;-65
2023/04/15 06:24:10;;;;;;;1.27;0.57;;;24.20;85.00;;;;;;5104555;28;20396;-61
2023/04/15 06:26:38;;;;;;;1.05;0.60;;;24.00;85.30;;;;;;5106978;28;20063;-60
2023/04/15 06:29:05;;;;;;;3.80;0.70;;;24.00;86.90;;;;;;5088867;28;20020;-62
2023/04/15 06:31:33;;;;;;;2.25;0.60;;;23.90;86.70;;;;;;5102494;28;20408;-63
2023/04/15 06:34:00;;;;;;;2.38;0.60;;;23.90;87.70;;;;;;5097666;28;20030;-63
2023/04/15 06:36:31;;;;;;;1.83;0.60;;;23.80;88.10;;;;;;5091213;28;20418;-63
2023/04/15 06:38:58;;;;;;;5.72;1.15;;;23.70;89.70;;;;;;5087850;28;20498;-64
2023/04/15 06:41:26;;;;;;;2.92;1.05;;;23.70;89.20;;;;;;5092599;28;20037;-64
2023/04/15 06:43:53;;;;;;;3.17;0.90;;;23.70;90.00;;;;;;5099305;28;20047;-63
2023/04/15 06:46:24;;;;;;;1.30;0.60;;;23.60;90.00;;;;;;5096959;28;20375;-64
2023/04/15 06:48:51;;;;;;;1.30;0.57;;;23.60;90.30;;;;;;5079497;28;20023;-62
2023/04/15 06:51:19;;;;;;;0.50;0.43;;;23.60;90.50;;;;;;5097338;28;20510;-63
2023/04/15 06:53:49;;;;;;;3.10;0.93;;;23.50;90.10;;;;;;5092056;28;20028;-66
2023/04/15 06:56:17;;;;;;;1.67;0.98;;;23.50;90.30;;;;;;5093123;28;20020;-64
2023/04/15 06:58:44;;;;;;;2.08;0.60;;;23.40;90.50;;;;;;5099016;28;20035;-64
2023/04/15 07:01:13;;;;;;;4.50;0.77;;;23.40;90.40;;;;;;5095163;28;20088;-63
2023/04/15 07:03:43;;;;;;;0.60;0.40;;;23.40;90.40;;;;;;5083595;28;20151;-64
2023/04/15 07:06:20;;;;;;;3.33;0.73;;;23.30;90.60;;;;;;5095057;28;20055;-65
2023/04/15 07:08:48;;;;;;;3.55;0.73;;;23.30;90.70;;;;;;5080037;28;20024;-65
2023/04/15 07:11:16;;;;;;;1.13;0.50;;;23.20;90.60;;;;;;5099265;28;20020;-65
2023/04/15 07:13:43;;;;;;;1.48;0.60;;;23.20;91.10;;;;;;5098031;28;20020;-64
2023/04/15 07:16:11;;;;;;;5.50;0.90;;;23.10;91.30;;;;;;5089540;28;20027;-65
2023/04/15 07:18:38;;;;;;;4.65;1.25;;;23.00;92.00;;;;;;5095372;28;20068;-65
2023/04/15 07:21:06;;;;;;;2.63;1.20;;;23.00;92.10;;;;;;5084092;28;20168;-63
2023/04/15 07:23:33;;;;;;;5.43;1.20;;;22.90;92.40;;;;;;5096203;28;20071;-65
2023/04/15 07:26:01;;;;;;;7.18;1.85;;;22.80;92.50;;;;;;5081019;28;20039;-64
2023/04/15 07:28:28;;;;;;;4.90;1.65;;;22.80;92.90;;;;;;5095542;28;20024;-63
2023/04/15 07:30:59;;;;;;;2.05;0.85;;;22.70;93.20;;;;;;5092854;28;20019;-63
2023/04/15 07:33:26;;;;;;;2.55;1.05;;;22.70;93.40;;;;;;5103074;28;20016;-64
2023/04/15 07:35:54;;;;;;;2.20;1.27;;;22.60;94.30;;;;;;5109136;28;20019;-63
2023/04/15 07:38:23;;;;;;;3.08;0.90;;;22.60;95.10;;;;;;5073421;28;20027;-64
2023/04/15 07:40:51;;;;;;;2.03;0.95;;;22.60;96.10;;;;;;5100935;28;20038;-63
2023/04/15 07:43:20;;;;;;;7.63;1.10;;;22.50;97.60;;;;;;5069860;28;20377;-63
2023/04/15 07:45:47;;;;;;;4.03;1.10;;;22.50;98.70;;;;;;5104982;28;20368;-65
2023/04/15 07:48:17;;;;;;;2.17;1.13;;;22.50;99.10;;;;;;5099573;28;20026;-65
2023/04/15 07:50:45;;;;;;;3.50;1.10;;;22.50;99.50;;;;;;5095350;28;20080;-63
2023/04/15 07:53:12;;;;;;;5.50;1.40;;;22.40;99.90;;;;;;5088776;28;20110;-67
2023/04/15 07:55:39;;;;;;;4.03;1.40;;;22.40;99.90;;;;;;5081355;28;20024;-67
2023/04/15 07:58:07;;;;;;;5.10;1.58;;;22.40;99.90;;;;;;5090347;28;20089;-64
2023/04/15 08:00:34;;;;;;;9.68;1.73;;;22.30;99.90;;;;;;5100071;28;20368;-63
2023/04/15 08:03:02;;;;;;;7.82;2.60;;;22.20;99.90;;;;;;5092044;28;20039;-63
2023/04/15 08:05:29;;;;;;;9.85;2.15;;;22.20;99.90;;;;;;5076401;28;20110;-64
2023/04/15 08:07:57;;;;;;;3.97;2.13;;;22.10;99.90;;;;;;5094109;28;20032;-64
2023/04/15 08:10:27;;;;;;;5.55;2.22;;;22.10;99.90;;;;;;5096155;28;20025;-63
2023/04/15 08:12:55;;;;;;;6.15;2.10;;;22.10;99.90;;;;;;5096711;28;20038;-64
2023/04/15 08:15:22;;;;;;;5.35;1.67;;;22.10;99.90;;;;;;5078601;28;20030;-62
2023/04/15 08:17:51;;;;;;;3.40;1.55;;;22.00;99.90;;;;;;5099671;28;20032;-62
2023/04/15 08:20:19;;;;;;;3.75;1.45;;;22.00;99.90;;;;;;5079948;28;20028;-61
2023/04/15 08:22:50;;;;;;;3.70;1.13;;;22.00;99.90;;;;;;5103688;28;20711;-65
2023/04/15 08:25:18;;;;;;;4.55;1.50;;;21.90;99.90;;;;;;5094866;28;20043;-63
2023/04/15 08:27:46;;;;;;;6.53;1.63;;;21.90;99.90;;;;;;5088689;28;20038;-64
2023/04/15 08:30:14;;;;;;;3.63;1.30;;;21.90;99.90;;;;;;5107039;28;20027;-65
2023/04/15 08:32:46;;;;;;;2.67;0.93;;;21.90;99.90;;;;;;5095336;28;20092;-65
2023/04/15 08:35:16;;;;;;;5.80;1.10;;;21.90;99.90;;;;;;5106843;28;20440;-64
2023/04/15 08:37:43;;;;;;;7.97;2.13;;;21.80;99.90;;;;;;5088176;28;20035;-64
2023/04/15 08:40:11;;;;;;;4.60;1.40;;;21.80;99.90;;;;;;5101982;28;20016;-64
2023/04/15 08:42:45;;;;;;;2.95;1.38;;;21.80;99.90;;;;;;5100499;28;20511;-64
2023/04/15 08:45:12;;;;;;;5.97;1.10;;;21.70;99.90;;;;;;5106741;28;20027;-63
2023/04/15 08:47:42;;;;;;;2.28;1.00;;;21.70;99.90;;;;;;5092344;28;20153;-63
2023/04/15 08:50:10;;;;;;;3.25;1.38;;;21.60;99.90;;;;;;5098806;28;20095;-63
2023/04/15 08:52:39;;;;;;;2.95;1.50;;;21.60;99.90;;;;;;5076451;28;20035;-62
2023/04/15 08:55:08;;;;;;;4.47;1.38;;;21.60;99.90;;;;;;5084658;28;20051;-62
2023/04/15 08:57:36;;;;;;;3.22;1.52;;;21.60;99.90;;;;;;5079637;28;20110;-63
2023/04/15 09:00:04;;;;;;;4.00;1.20;;;21.60;99.90;;;;;;5103691;28;20119;-61
2023/04/15 09:02:33;;;;;;;3.17;1.35;;;21.60;99.90;;;;;;5084243;28;20539;-63
2023/04/15 09:05:05;;;;;;;4.97;1.30;;;21.50;99.90;;;;;;5084862;28;20496;-61
2023/04/15 09:07:35;;;;;;;4.30;1.85;;;21.50;99.90;;;;;;5073088;28;20140;-61
2023/04/15 09:10:04;;;;;;;7.40;1.50;;;21.40;99.90;;;;;;5077204;28;20028;-61
2023/04/15 09:12:33;;;;;;;2.53;1.00;;;21.40;99.90;;;;;;5065827;28;20028;-61
2023/04/15 09:15:02;;;;;;;4.93;2.13;;;21.30;99.90;;;;;;5067991;28;20016;-61
2023/04/15 09:17:32;;;;;;;3.58;1.20;;;21.30;99.90;;;;;;5082313;28;20683;-61
2023/04/15 09:20:13;;;;;;;2.10;1.10;;;21.20;99.90;;;;;;5076696;28;20024;-62
2023/04/15 09:22:44;;;;;;;2.80;1.40;;;21.10;99.90;;;;;;5080542;28;20040;-62
2023/04/15 09:25:27;;;;;;;3.60;1.30;;;21.10;99.90;;;;;;5069966;28;20432;-62
2023/04/15 09:27:58;;;;;;;7.43;1.48;;;21.10;99.90;;;;;;5079526;28;20032;-61
2023/04/15 09:30:27;;;;;;;4.55;1.60;;;21.10;99.90;;;;;;5071491;28;20078;-61
2023/04/15 09:33:09;;;;;;;3.08;1.52;;;21.10;99.90;;;;;;5068448;28;20054;-60
2023/04/15 09:35:38;;;;;;;5.35;1.65;;;21.00;99.90;;;;;;5069654;28;20048;-61
2023/04/15 09:38:08;;;;;;;4.13;1.35;;;21.10;99.90;;;;;;5071089;28;20032;-62
2023/04/15 09:40:41;;;;;;;4.03;1.60;;;21.10;99.90;;;;;;5083667;28;20024;-60
2023/04/15 09:43:12;;;;;;;3.53;1.45;;;21.00;99.90;;;;;;5081753;28;20123;-61
2023/04/15 09:45:46;;;;;;;9.23;1.40;;;21.00;99.90;;;;;;5079666;28;20081;-62
2023/04/15 09:48:29;;;;;;;3.58;1.55;;;21.00;99.90;;;;;;5087278;28;20032;-61
2023/04/15 09:51:01;;;;;;;4.10;1.77;;;20.90;99.90;;;;;;5073297;28;20023;-61
2023/04/15 09:53:29;;;;;;;4.13;2.28;;;20.80;99.90;;;;;;5080718;28;20488;-61
2023/04/15 09:56:00;;;;;;;6.35;2.15;;;20.70;99.90;;;;;;5073487;28;20034;-63
2023/04/15 09:58:28;;;;;;;9.38;3.30;;;20.60;99.90;;;;;;5082883;28;20055;-61
2023/04/15 10:00:57;;;;;;;12.40;2.80;;;20.60;99.90;;;;;;5070185;28;20024;-62
2023/04/15 10:03:31;;;;;;;9.20;2.53;;;20.60;99.90;;;;;;5085302;28;20065;-60
2023/04/15 10:06:00;;;;;;;8.38;2.50;;;20.50;99.90;;;;;;5089239;28;20027;-60
2023/04/15 10:08:31;;;;;;;7.18;2.97;;;20.50;99.90;;;;;;5089337;28;20027;-61
2023/04/15 10:11:01;;;;;;;7.13;2.78;;;20.50;99.90;;;;;;5089063;28;20051;-60
2023/04/15 10:13:33;;;;;;;5.25;2.33;;;20.40;99.90;;;;;;5070337;28;20353;-60
2023/04/15 10:16:13;;;;;;;4.65;1.50;;;20.40;99.90;;;;;;5094681;28;20057;-60
2023/04/15 10:18:45;;;;;;;6.93;1.85;;;20.40;99.90;;;;;;5099553;28;20065;-60
2023/04/15 10:21:17;;;;;;;7.03;2.45;;;20.40;99.90;;;;;;5095773;28;20071;-61
2023/04/15 10:23:45;;;;;;;5.05;2.08;;;20.30;99.90;;;;;;5090799;28;20055;-61
2023/04/15 10:26:15;;;;;;;9.38;2.80;;;20.30;99.90;;;;;;5088606;28;20031;-61
2023/04/15 10:28:42;;;;;;;9.07;2.75;;;20.30;99.90;;;;;;5089541;28;20058;-61
2023/04/15 10:31:13;;;;;;;6.55;1.92;;;20.30;99.90;;;;;;5100102;28;20038;-60
2023/04/15 10:33:42;;;;;;;5.13;1.80;;;20.30;99.90;;;;;;5083948;28;20028;-63
2023/04/15 10:36:11;;;;;;;5.38;1.83;;;20.30;99.90;;;;;;5076003;28;20028;-60
2023/04/15 10:38:45;;;;;;;6.78;1.48;;;20.30;99.90;;;;;;5071377;28;20031;-60
2023/04/15 10:41:33;;;;;;;4.70;1.55;;;20.30;99.90;;;;;;5081852;28;20743;-61
2023/04/15 10:44:05;;;;;;;4.05;1.92;;;20.30;99.90;;;;;;5087388;28;20071;-60
2023/04/15 10:46:37;;;;;;;3.85;1.27;;;20.30;99.90;;;;;;5093768;28;20094;-62
2023/04/15 10:49:15;;;;;;;7.10;1.67;;;20.20;99.90;;;;;;5096291;28;20114;-62
2023/04/15 10:51:56;;;;;;;8.15;1.70;;;20.20;99.90;;;;;;5097804;28;20062;-62
2023/04/15 10:54:27;;;;;;;3.75;1.45;;;20.20;99.90;;;;;;5075320;28;20039;-62
2023/04/15 10:57:23;;;;;;;4.45;1.50;;;20.20;99.90;;;;;;5105191;28;20552;-62
2023/04/15 11:00:05;;;;;;;5.00;1.63;;;20.20;99.90;;;;;;5099495;28;20035;-61
2023/04/15 11:02:47;;;;;;;2.70;1.05;;;20.20;99.90;;;;;;5076283;28;20458;-60
2023/04/15 11:05:16;;;;;;;2.40;0.98;;;20.10;99.90;;;;;;5097164;28;20028;-61
2023/04/15 11:07:48;;;;;;;2.63;0.95;;;20.20;99.90;;;;;;5092489;28;20439;-61
2023/04/15 11:10:25;;;;;;;2.42;0.82;;;20.20;99.90;;;;;;5073139;28;20450;-62
2023/04/15 11:13:18;;;;;;;2.72;0.95;;;20.20;99.90;;;;;;5108435;28;20039;-60
2023/04/15 11:15:47;;;;;;;3.67;1.20;;;20.20;99.90;;;;;;5077381;28;20032;-63
2023/04/15 11:18:15;;;;;;;2.75;1.25;;;20.20;99.90;;;;;;5094355;28;20037;-60
2023/04/15 11:20:45;;;;;;;2.38;1.17;;;20.20;99.90;;;;;;5101366;28;20043;-61
2023/04/15 11:23:15;;;;;;;5.20;1.35;;;20.20;99.90;;;;;;5087756;28;20515;-61
2023/04/15 11:25:47;;;;;;;2.97;1.15;;;20.20;99.90;;;;;;5090078;28;20507;-61
2023/04/15 11:28:14;;;;;;;2.13;1.00;;;20.10;99.90;;;;;;5100600;28;20027;-60
2023/04/15 11:30:44;;;;;;;2.42;1.00;;;20.10;99.90;;;;;;5089495;28;20027;-60
2023/04/15 11:33:12;;;;;;;3.72;1.00;;;20.10;99.90;;;;;;5085447;28;20403;-61
2023/04/15 11:35:44;;;;;;;4.55;1.00;;;20.10;99.90;;;;;;5087540;28;20020;-61
2023/04/15 11:38:14;;;;;;;2.22;1.15;;;20.10;99.90;;;;;;5087184;28;20028;-62
2023/04/15 11:40:45;;;;;;;2.78;1.17;;;20.10;99.90;;;;;;5087182;28;20514;-61
2023/04/15 11:43:22;;;;;;;3.20;0.95;;;20.00;99.90;;;;;;5092249;28;20048;-61
2023/04/15 11:45:54;;;;;;;3.53;1.40;;;20.00;99.90;;;;;;5078011;28;20090;-61
2023/04/15 11:48:27;;;;;;;4.50;1.50;;;20.00;99.90;;;;;;5087815;28;20052;-62
2023/04/15 11:51:03;;;;;;;3.35;1.55;;;20.00;99.90;;;;;;5091739;28;20016;-61
2023/04/15 11:53:44;;;;;;;5.47;1.13;;;19.90;99.90;;;;;;5078192;28;20028;-61
2023/04/15 11:56:18;;;;;;;3.25;1.33;;;19.90;99.90;;;;;;5071711;28;20063;-60
2023/04/15 11:58:46;;;;;;;6.55;2.05;;;19.80;99.90;;;;;;5080183;28;20111;-60
2023/04/15 12:01:15;;;;;;;6.88;1.58;;;19.80;99.90;;;;;;5096681;28;20035;-61
2023/04/15 12:03:49;;;;;;;3.78;0.80;;;19.70;99.90;;;;;;5073985;28;20055;-61
2023/04/15 12:06:24;;;;;;;3.17;1.35;;;19.60;99.90;;;;;;5075386;28;20035;-60
2023/04/15 12:09:19;;;;;;;4.03;1.25;;;19.60;99.90;;;;;;5095651;28;20063;-60
2023/04/15 12:11:48;;;;;;;4.18;1.30;;;19.60;99.90;;;;;;5082651;28;20043;-62
2023/04/15 12:14:28;;;;;;;4.85;1.13;;;19.60;99.90;;;;;;5089937;28;20055;-61
2023/04/15 12:17:02;;;;;;;5.80;1.00;;;19.50;99.90;;;;;;5093337;28;20023;-61
2023/04/15 12:19:37;;;;;;;7.93;1.98;;;19.50;99.90;;;;;;5094173;28;20027;-61
2023/04/15 12:22:14;;;;;;;3.55;1.17;;;19.40;99.90;;;;;;5073508;28;20036;-62
2023/04/15 12:24:46;;;;;;;4.07;1.13;;;19.40;99.90;;;;;;5056540;28;20373;-60
2023/04/15 12:27:17;;;;;;;8.95;1.40;;;19.40;99.90;;;;;;5092244;28;20122;-60
2023/04/15 12:29:44;;;;;;;3.10;1.00;;;19.40;99.90;;;;;;5077668;28;20043;-63
2023/04/15 12:32:21;;;;;;;3.58;1.00;;;19.40;99.90;;;;;;5090202;28;20027;-63
2023/04/15 12:34:53;;;;;;;3.83;1.85;;;19.30;99.90;;;;;;5097079;28;20552;-59
2023/04/15 12:37:21;;;;;;;4.63;1.60;;;19.30;99.90;;;;;;5090610;28;20031;-61
2023/04/15 12:39:49;;;;;;;2.70;1.23;;;19.30;99.90;;;;;;5060548;28;20038;-60
2023/04/15 12:42:17;;;;;;;5.10;1.30;;;19.30;99.90;;;;;;5096659;28;20102;-61
2023/04/15 12:44:45;;;;;;;4.20;1.52;;;19.20;99.90;;;;;;5090567;28;20039;-61
2023/04/15 12:47:13;;;;;;;3.13;1.45;;;19.20;99.90;;;;;;5095469;28;20078;-61
2023/04/15 12:49:41;;;;;;;4.30;1.85;;;19.20;99.90;;;;;;5095772;28;20463;-60
2023/04/15 12:52:12;;;;;;;2.80;1.65;;;19.20;99.90;;;;;;5098062;28;20019;-60
2023/04/15 12:54:40;;;;;;;2.63;0.90;;;19.20;99.90;;;;;;5096626;28;20035;-60
2023/04/15 13:02:38;;;;;;;3.75;1.30;;;19.10;99.90;;;;;;5094540;28;20141;-60
2023/04/15 13:05:06;;;;;;;4.75;0.93;;;19.00;99.90;;;;;;5072288;28;20035;-60